P.t. Monto — VMBF — position and weather

sailwx.info

Track history (hours):
 
Tides and Currents Weather Stations Pressure Air Temp Water Temp Dewpoint Dewpoint Depression Visibility Wind Speed Wind Dir Waves Ship Positions

P.t. Monto

Last reported at 2016-Jul-08 15:29 UTC. Time now 2016-Dec-05 00:34 UTC.
Position S 38°38' E 142°15'.
Warning: this ship's position is months out of date.

Length 32 m; draft 3.4 m.

Type: Tug. MMSI: 503612000.

Date/timePositionNaut miles runAvg speedWind from/ knotsBaromVisibWave heightAir tempDewpointWater temp
2016-Jul-08 15:29S 38°38' E 142°15'  
2016-Jul-03 15:33S 38°29' E 142°01'5 4.6
2016-Jul-03 14:33S 38°29' E 142°07'5 4.9
2016-Jul-03 13:32S 38°29' E 142°13'5 5.1
2016-Jul-03 12:32S 38°29' E 142°19'5 5.0
2016-Jul-03 11:33S 38°31' E 142°25'170 4.0
2016-Jul-01 17:30S 39°08' E 145°58'4 3.7
2016-Jul-01 16:28S 39°09' E 146°03'4 3.6
2016-Jul-01 15:29S 39°11' E 146°07'3 3.6
2016-Jul-01 14:32S 39°11' E 146°11'4 3.6
2016-Jul-01 13:32S 39°12' E 146°16'4 3.8
2016-Jul-01 12:33S 39°12' E 146°21'4 4.1
2016-Jul-01 11:33S 39°11' E 146°26'5 4.6
2016-Jul-01 10:33S 39°09' E 146°32'5 4.9
2016-Jul-01 09:33S 39°08' E 146°37'5 4.8
2016-Jul-01 08:33S 39°06' E 146°43'5 4.8
2016-Jul-01 07:33S 39°05' E 146°49'5 4.6
2016-Jul-01 06:33S 39°03' E 146°55'4 4.2
2016-Jul-01 05:33S 39°02' E 146°60'4 3.8
2016-Jul-01 04:27S 39°01' E 147°05'102 4.4
2016-Jun-30 05:23S 38°11' E 148°59'5 6.3
2016-Jun-30 04:33S 38°08' E 149°04'6 6.3
2016-Jun-30 03:33S 38°03' E 149°10'6 6.1
2016-Jun-30 02:33S 37°60' E 149°16'6 5.8
2016-Jun-30 01:33S 37°56' E 149°21'6 5.8
2016-Jun-30 00:33S 37°52' E 149°27'5 5.4
2016-Jun-29 23:33S 37°48' E 149°32'5 5.4
2016-Jun-29 22:33S 37°45' E 149°38'6 5.7
2016-Jun-29 21:33S 37°42' E 149°43'6 5.7
2016-Jun-29 20:33S 37°39' E 149°49'6 5.7
2016-Jun-29 19:33S 37°36' E 149°56'5 5.4
2016-Jun-29 18:33S 37°32' E 150°01'6 5.8
2016-Jun-29 17:33S 37°26' E 150°03'6 5.9
2016-Jun-29 16:33S 37°21' E 150°04'6 6.2
2016-Jun-29 15:33S 37°15' E 150°06'7 6.9
2016-Jun-29 14:33S 37°08' E 150°04'7 6.6
2016-Jun-29 13:33S 37°01' E 150°03'7 6.8
2016-Jun-29 12:33S 36°55' E 150°01'7 6.5
2016-Jun-29 11:33S 36°48' E 150°01'7 6.6
2016-Jun-29 10:33S 36°42' E 150°03'6 6.2
2016-Jun-29 09:33S 36°36' E 150°06'6 6.0
2016-Jun-29 08:34S 36°30' E 150°07'  
Track history (hours):
 
Tides and Currents Weather Stations Pressure Air Temp Water Temp Dewpoint Dewpoint Depression Visibility Wind Speed Wind Dir Waves Ship Positions

P.t. Monto

Last reported at 2016-Jul-08 15:29 UTC. Time now 2016-Dec-05 00:34 UTC.
Position S 38°38' E 142°15'.
Warning: this ship's position is months out of date.

Length 32 m; draft 3.4 m.

Type: Tug. MMSI: 503612000.

Date/timePositionNaut miles runAvg speedWind from/ knotsBaromVisibWave heightAir tempDewpointWater temp
2016-Jul-08 15:29S 38°38' E 142°15'  
2016-Jul-03 15:33S 38°29' E 142°01'5 4.6
2016-Jul-03 14:33S 38°29' E 142°07'5 4.9
2016-Jul-03 13:32S 38°29' E 142°13'5 5.1
2016-Jul-03 12:32S 38°29' E 142°19'5 5.0
2016-Jul-03 11:33S 38°31' E 142°25'170 4.0
2016-Jul-01 17:30S 39°08' E 145°58'4 3.7
2016-Jul-01 16:28S 39°09' E 146°03'4 3.6
2016-Jul-01 15:29S 39°11' E 146°07'3 3.6
2016-Jul-01 14:32S 39°11' E 146°11'4 3.6
2016-Jul-01 13:32S 39°12' E 146°16'4 3.8
2016-Jul-01 12:33S 39°12' E 146°21'4 4.1
2016-Jul-01 11:33S 39°11' E 146°26'5 4.6
2016-Jul-01 10:33S 39°09' E 146°32'5 4.9
2016-Jul-01 09:33S 39°08' E 146°37'5 4.8
2016-Jul-01 08:33S 39°06' E 146°43'5 4.8
2016-Jul-01 07:33S 39°05' E 146°49'5 4.6
2016-Jul-01 06:33S 39°03' E 146°55'4 4.2
2016-Jul-01 05:33S 39°02' E 146°60'4 3.8
2016-Jul-01 04:27S 39°01' E 147°05'102 4.4
2016-Jun-30 05:23S 38°11' E 148°59'5 6.3
2016-Jun-30 04:33S 38°08' E 149°04'6 6.3
2016-Jun-30 03:33S 38°03' E 149°10'6 6.1
2016-Jun-30 02:33S 37°60' E 149°16'6 5.8
2016-Jun-30 01:33S 37°56' E 149°21'6 5.8
2016-Jun-30 00:33S 37°52' E 149°27'5 5.4
2016-Jun-29 23:33S 37°48' E 149°32'5 5.4
2016-Jun-29 22:33S 37°45' E 149°38'6 5.7
2016-Jun-29 21:33S 37°42' E 149°43'6 5.7
2016-Jun-29 20:33S 37°39' E 149°49'6 5.7
2016-Jun-29 19:33S 37°36' E 149°56'5 5.4
2016-Jun-29 18:33S 37°32' E 150°01'6 5.8
2016-Jun-29 17:33S 37°26' E 150°03'6 5.9
2016-Jun-29 16:33S 37°21' E 150°04'6 6.2
2016-Jun-29 15:33S 37°15' E 150°06'7 6.9
2016-Jun-29 14:33S 37°08' E 150°04'7 6.6
2016-Jun-29 13:33S 37°01' E 150°03'7 6.8
2016-Jun-29 12:33S 36°55' E 150°01'7 6.5
2016-Jun-29 11:33S 36°48' E 150°01'7 6.6
2016-Jun-29 10:33S 36°42' E 150°03'6 6.2
2016-Jun-29 09:33S 36°36' E 150°06'6 6.0
2016-Jun-29 08:34S 36°30' E 150°07'  

Dump ship's entire track history